sensor_id;sensor_type;location;lat;lon;timestamp;P1;durP1;ratioP1;P2;durP2;ratioP2
17983;SDS011;9117;52.420;20.728;2023-03-15T00:00:06;14.97;;;8.63;;
17983;SDS011;9117;52.420;20.728;2023-03-15T00:02:38;14.07;;;8.37;;
17983;SDS011;9117;52.420;20.728;2023-03-15T00:05:09;15.23;;;9.37;;
17983;SDS011;9117;52.420;20.728;2023-03-15T00:07:39;15.00;;;8.87;;
17983;SDS011;9117;52.420;20.728;2023-03-15T00:10:07;15.00;;;8.70;;
17983;SDS011;9117;52.420;20.728;2023-03-15T00:12:36;9.77;;;5.83;;
17983;SDS011;9117;52.420;20.728;2023-03-15T00:15:05;4.60;;;2.30;;
17983;SDS011;9117;52.420;20.728;2023-03-15T00:17:33;2.10;;;1.67;;
17983;SDS011;9117;52.420;20.728;2023-03-15T00:20:03;3.33;;;2.10;;
17983;SDS011;9117;52.420;20.728;2023-03-15T00:22:33;2.17;;;1.53;;
17983;SDS011;9117;52.420;20.728;2023-03-15T00:25:01;2.60;;;1.20;;
17983;SDS011;9117;52.420;20.728;2023-03-15T00:27:29;4.17;;;2.80;;
17983;SDS011;9117;52.420;20.728;2023-03-15T00:29:57;3.50;;;2.33;;
17983;SDS011;9117;52.420;20.728;2023-03-15T00:32:26;2.90;;;2.20;;
17983;SDS011;9117;52.420;20.728;2023-03-15T00:34:54;2.07;;;1.80;;
17983;SDS011;9117;52.420;20.728;2023-03-15T00:37:24;2.53;;;1.57;;
17983;SDS011;9117;52.420;20.728;2023-03-15T00:39:52;3.60;;;2.63;;
17983;SDS011;9117;52.420;20.728;2023-03-15T00:42:21;4.00;;;2.30;;
17983;SDS011;9117;52.420;20.728;2023-03-15T00:44:52;2.97;;;2.20;;
17983;SDS011;9117;52.420;20.728;2023-03-15T00:47:21;7.63;;;2.30;;
17983;SDS011;9117;52.420;20.728;2023-03-15T00:49:50;3.50;;;2.03;;
17983;SDS011;9117;52.420;20.728;2023-03-15T00:52:18;2.37;;;1.40;;
17983;SDS011;9117;52.420;20.728;2023-03-15T00:54:51;3.53;;;2.10;;
17983;SDS011;9117;52.420;20.728;2023-03-15T00:57:20;3.17;;;2.27;;
17983;SDS011;9117;52.420;20.728;2023-03-15T00:59:48;4.10;;;2.53;;
17983;SDS011;9117;52.420;20.728;2023-03-15T01:02:18;6.37;;;3.13;;
17983;SDS011;9117;52.420;20.728;2023-03-15T01:04:47;6.30;;;3.30;;
17983;SDS011;9117;52.420;20.728;2023-03-15T01:07:16;5.53;;;2.57;;
17983;SDS011;9117;52.420;20.728;2023-03-15T01:09:44;3.77;;;2.30;;
17983;SDS011;9117;52.420;20.728;2023-03-15T01:12:15;2.50;;;1.80;;
17983;SDS011;9117;52.420;20.728;2023-03-15T01:14:43;5.67;;;1.70;;
17983;SDS011;9117;52.420;20.728;2023-03-15T01:17:11;4.43;;;2.00;;
17983;SDS011;9117;52.420;20.728;2023-03-15T01:19:39;4.80;;;1.60;;
17983;SDS011;9117;52.420;20.728;2023-03-15T01:22:08;3.73;;;1.00;;
17983;SDS011;9117;52.420;20.728;2023-03-15T01:24:36;5.50;;;1.60;;
17983;SDS011;9117;52.420;20.728;2023-03-15T01:27:04;1.93;;;1.13;;
17983;SDS011;9117;52.420;20.728;2023-03-15T01:29:34;2.23;;;1.57;;
17983;SDS011;9117;52.420;20.728;2023-03-15T01:32:02;3.47;;;1.60;;
17983;SDS011;9117;52.420;20.728;2023-03-15T01:34:31;4.13;;;2.10;;
17983;SDS011;9117;52.420;20.728;2023-03-15T01:36:59;4.23;;;1.57;;
17983;SDS011;9117;52.420;20.728;2023-03-15T01:39:28;7.93;;;2.20;;
17983;SDS011;9117;52.420;20.728;2023-03-15T01:41:56;2.83;;;1.87;;
17983;SDS011;9117;52.420;20.728;2023-03-15T01:44:44;6.20;;;2.83;;
17983;SDS011;9117;52.420;20.728;2023-03-15T01:47:17;3.50;;;1.70;;
17983;SDS011;9117;52.420;20.728;2023-03-15T01:49:47;8.37;;;2.50;;
17983;SDS011;9117;52.420;20.728;2023-03-15T01:52:19;5.03;;;2.07;;
17983;SDS011;9117;52.420;20.728;2023-03-15T01:54:50;4.27;;;1.90;;
17983;SDS011;9117;52.420;20.728;2023-03-15T01:57:24;2.57;;;1.27;;
17983;SDS011;9117;52.420;20.728;2023-03-15T01:59:57;2.33;;;1.63;;
17983;SDS011;9117;52.420;20.728;2023-03-15T02:02:34;2.87;;;1.80;;
17983;SDS011;9117;52.420;20.728;2023-03-15T02:05:06;4.37;;;1.50;;
17983;SDS011;9117;52.420;20.728;2023-03-15T02:07:37;5.50;;;2.30;;
17983;SDS011;9117;52.420;20.728;2023-03-15T02:10:15;4.27;;;2.00;;
17983;SDS011;9117;52.420;20.728;2023-03-15T02:12:49;5.40;;;2.37;;
17983;SDS011;9117;52.420;20.728;2023-03-15T02:15:20;5.30;;;2.27;;
17983;SDS011;9117;52.420;20.728;2023-03-15T02:17:48;2.90;;;1.90;;
17983;SDS011;9117;52.420;20.728;2023-03-15T02:20:22;5.63;;;1.70;;
17983;SDS011;9117;52.420;20.728;2023-03-15T02:23:00;2.10;;;1.20;;
17983;SDS011;9117;52.420;20.728;2023-03-15T02:25:33;5.90;;;1.53;;
17983;SDS011;9117;52.420;20.728;2023-03-15T02:28:11;7.43;;;1.50;;
17983;SDS011;9117;52.420;20.728;2023-03-15T02:30:40;4.20;;;1.70;;
17983;SDS011;9117;52.420;20.728;2023-03-15T02:33:10;4.23;;;1.77;;
17983;SDS011;9117;52.420;20.728;2023-03-15T02:35:44;7.03;;;2.03;;
17983;SDS011;9117;52.420;20.728;2023-03-15T02:38:12;3.40;;;2.20;;
17983;SDS011;9117;52.420;20.728;2023-03-15T02:40:40;5.87;;;2.40;;
17983;SDS011;9117;52.420;20.728;2023-03-15T02:43:12;4.67;;;2.50;;
17983;SDS011;9117;52.420;20.728;2023-03-15T02:45:43;5.90;;;2.60;;
17983;SDS011;9117;52.420;20.728;2023-03-15T02:48:13;4.80;;;2.30;;
17983;SDS011;9117;52.420;20.728;2023-03-15T02:50:42;7.73;;;2.63;;
17983;SDS011;9117;52.420;20.728;2023-03-15T02:53:10;7.17;;;2.47;;
17983;SDS011;9117;52.420;20.728;2023-03-15T02:55:38;5.57;;;2.60;;
17983;SDS011;9117;52.420;20.728;2023-03-15T02:58:06;5.40;;;1.90;;
17983;SDS011;9117;52.420;20.728;2023-03-15T03:00:36;4.13;;;1.53;;
17983;SDS011;9117;52.420;20.728;2023-03-15T03:03:04;6.73;;;1.93;;
17983;SDS011;9117;52.420;20.728;2023-03-15T03:05:34;4.50;;;1.73;;
17983;SDS011;9117;52.420;20.728;2023-03-15T03:08:02;5.63;;;1.93;;
17983;SDS011;9117;52.420;20.728;2023-03-15T03:10:30;4.63;;;1.70;;
17983;SDS011;9117;52.420;20.728;2023-03-15T03:12:58;4.67;;;1.70;;
17983;SDS011;9117;52.420;20.728;2023-03-15T03:15:27;3.80;;;1.50;;
17983;SDS011;9117;52.420;20.728;2023-03-15T03:17:56;4.67;;;1.80;;
17983;SDS011;9117;52.420;20.728;2023-03-15T03:20:24;3.40;;;1.90;;
17983;SDS011;9117;52.420;20.728;2023-03-15T03:22:53;4.07;;;1.97;;
17983;SDS011;9117;52.420;20.728;2023-03-15T03:25:22;5.97;;;2.60;;
17983;SDS011;9117;52.420;20.728;2023-03-15T03:27:52;5.40;;;2.53;;
17983;SDS011;9117;52.420;20.728;2023-03-15T03:30:22;5.33;;;2.63;;
17983;SDS011;9117;52.420;20.728;2023-03-15T03:32:51;7.20;;;2.53;;
17983;SDS011;9117;52.420;20.728;2023-03-15T03:35:20;4.90;;;2.70;;
17983;SDS011;9117;52.420;20.728;2023-03-15T03:37:48;7.07;;;2.80;;
17983;SDS011;9117;52.420;20.728;2023-03-15T03:40:19;5.47;;;2.20;;
17983;SDS011;9117;52.420;20.728;2023-03-15T03:42:47;7.23;;;2.93;;
17983;SDS011;9117;52.420;20.728;2023-03-15T03:45:15;5.23;;;2.97;;
17983;SDS011;9117;52.420;20.728;2023-03-15T03:47:43;9.07;;;3.40;;
17983;SDS011;9117;52.420;20.728;2023-03-15T03:50:11;6.80;;;3.20;;
17983;SDS011;9117;52.420;20.728;2023-03-15T03:52:41;6.43;;;3.10;;
17983;SDS011;9117;52.420;20.728;2023-03-15T03:55:10;12.63;;;4.00;;
17983;SDS011;9117;52.420;20.728;2023-03-15T03:57:39;10.47;;;4.07;;
17983;SDS011;9117;52.420;20.728;2023-03-15T04:00:08;13.67;;;4.27;;
17983;SDS011;9117;52.420;20.728;2023-03-15T04:02:39;11.57;;;4.23;;
17983;SDS011;9117;52.420;20.728;2023-03-15T04:05:09;7.13;;;4.27;;
17983;SDS011;9117;52.420;20.728;2023-03-15T04:07:37;8.57;;;3.27;;
17983;SDS011;9117;52.420;20.728;2023-03-15T04:10:08;17.07;;;5.23;;
17983;SDS011;9117;52.420;20.728;2023-03-15T04:12:40;14.27;;;4.77;;
17983;SDS011;9117;52.420;20.728;2023-03-15T04:15:09;10.13;;;4.50;;
17983;SDS011;9117;52.420;20.728;2023-03-15T04:17:38;15.37;;;4.60;;
17983;SDS011;9117;52.420;20.728;2023-03-15T04:20:07;9.20;;;3.80;;
17983;SDS011;9117;52.420;20.728;2023-03-15T04:22:37;8.40;;;4.00;;
17983;SDS011;9117;52.420;20.728;2023-03-15T04:25:05;10.77;;;4.20;;
17983;SDS011;9117;52.420;20.728;2023-03-15T04:27:36;9.37;;;4.00;;
17983;SDS011;9117;52.420;20.728;2023-03-15T04:30:04;8.37;;;3.80;;
17983;SDS011;9117;52.420;20.728;2023-03-15T04:32:33;7.93;;;3.20;;
17983;SDS011;9117;52.420;20.728;2023-03-15T04:35:01;6.87;;;3.10;;
17983;SDS011;9117;52.420;20.728;2023-03-15T04:37:30;8.73;;;3.73;;
17983;SDS011;9117;52.420;20.728;2023-03-15T04:39:58;10.27;;;3.50;;
17983;SDS011;9117;52.420;20.728;2023-03-15T04:42:28;7.57;;;3.20;;
17983;SDS011;9117;52.420;20.728;2023-03-15T04:44:56;11.03;;;3.00;;
17983;SDS011;9117;52.420;20.728;2023-03-15T04:47:24;19.70;;;3.80;;
17983;SDS011;9117;52.420;20.728;2023-03-15T04:49:52;6.23;;;2.90;;
17983;SDS011;9117;52.420;20.728;2023-03-15T04:52:20;5.70;;;2.13;;
17983;SDS011;9117;52.420;20.728;2023-03-15T04:54:49;10.50;;;3.73;;
17983;SDS011;9117;52.420;20.728;2023-03-15T04:57:17;10.97;;;3.20;;
17983;SDS011;9117;52.420;20.728;2023-03-15T04:59:48;10.23;;;3.80;;
17983;SDS011;9117;52.420;20.728;2023-03-15T05:02:22;11.67;;;3.50;;
17983;SDS011;9117;52.420;20.728;2023-03-15T05:04:50;8.77;;;3.17;;
17983;SDS011;9117;52.420;20.728;2023-03-15T05:07:18;7.40;;;3.03;;
17983;SDS011;9117;52.420;20.728;2023-03-15T05:09:46;9.73;;;3.40;;
17983;SDS011;9117;52.420;20.728;2023-03-15T05:12:17;19.23;;;4.67;;
17983;SDS011;9117;52.420;20.728;2023-03-15T05:14:47;7.73;;;3.93;;
17983;SDS011;9117;52.420;20.728;2023-03-15T05:17:15;7.27;;;3.57;;
17983;SDS011;9117;52.420;20.728;2023-03-15T05:19:43;14.70;;;3.90;;
17983;SDS011;9117;52.420;20.728;2023-03-15T05:22:11;9.03;;;3.77;;
17983;SDS011;9117;52.420;20.728;2023-03-15T05:24:39;10.93;;;3.43;;
17983;SDS011;9117;52.420;20.728;2023-03-15T05:27:09;8.37;;;3.10;;
17983;SDS011;9117;52.420;20.728;2023-03-15T05:29:38;13.53;;;3.30;;
17983;SDS011;9117;52.420;20.728;2023-03-15T05:32:08;16.00;;;4.50;;
17983;SDS011;9117;52.420;20.728;2023-03-15T05:34:36;8.50;;;3.83;;
17983;SDS011;9117;52.420;20.728;2023-03-15T05:37:05;7.23;;;3.00;;
17983;SDS011;9117;52.420;20.728;2023-03-15T05:39:33;15.40;;;4.13;;
17983;SDS011;9117;52.420;20.728;2023-03-15T05:42:01;11.70;;;4.23;;
17983;SDS011;9117;52.420;20.728;2023-03-15T05:44:29;10.33;;;3.67;;
17983;SDS011;9117;52.420;20.728;2023-03-15T05:46:57;15.40;;;3.93;;
17983;SDS011;9117;52.420;20.728;2023-03-15T05:49:27;10.23;;;4.13;;
17983;SDS011;9117;52.420;20.728;2023-03-15T05:51:55;11.63;;;4.23;;
17983;SDS011;9117;52.420;20.728;2023-03-15T05:54:23;8.83;;;3.40;;
17983;SDS011;9117;52.420;20.728;2023-03-15T05:56:51;5.77;;;3.40;;
17983;SDS011;9117;52.420;20.728;2023-03-15T05:59:20;9.67;;;3.47;;
17983;SDS011;9117;52.420;20.728;2023-03-15T06:01:48;6.80;;;3.30;;
17983;SDS011;9117;52.420;20.728;2023-03-15T06:04:19;8.30;;;2.93;;
17983;SDS011;9117;52.420;20.728;2023-03-15T06:06:49;13.33;;;3.97;;
17983;SDS011;9117;52.420;20.728;2023-03-15T06:09:17;11.73;;;4.70;;
17983;SDS011;9117;52.420;20.728;2023-03-15T06:11:45;11.23;;;4.33;;
17983;SDS011;9117;52.420;20.728;2023-03-15T06:14:13;10.27;;;3.53;;
17983;SDS011;9117;52.420;20.728;2023-03-15T06:16:41;7.07;;;3.53;;
17983;SDS011;9117;52.420;20.728;2023-03-15T06:19:10;9.87;;;3.23;;
17983;SDS011;9117;52.420;20.728;2023-03-15T06:21:38;12.57;;;3.77;;
17983;SDS011;9117;52.420;20.728;2023-03-15T06:24:07;12.73;;;4.23;;
17983;SDS011;9117;52.420;20.728;2023-03-15T06:26:36;8.97;;;3.57;;
17983;SDS011;9117;52.420;20.728;2023-03-15T06:29:04;11.00;;;4.43;;
17983;SDS011;9117;52.420;20.728;2023-03-15T06:31:32;13.03;;;4.33;;
17983;SDS011;9117;52.420;20.728;2023-03-15T06:34:00;14.20;;;4.33;;
17983;SDS011;9117;52.420;20.728;2023-03-15T06:36:28;13.90;;;3.90;;
17983;SDS011;9117;52.420;20.728;2023-03-15T06:38:57;10.50;;;4.07;;
17983;SDS011;9117;52.420;20.728;2023-03-15T06:41:27;13.10;;;3.70;;
17983;SDS011;9117;52.420;20.728;2023-03-15T06:43:57;20.40;;;4.60;;
17983;SDS011;9117;52.420;20.728;2023-03-15T06:46:26;13.20;;;4.07;;
17983;SDS011;9117;52.420;20.728;2023-03-15T06:48:54;13.73;;;3.70;;
17983;SDS011;9117;52.420;20.728;2023-03-15T06:51:22;11.97;;;3.97;;
17983;SDS011;9117;52.420;20.728;2023-03-15T06:53:51;13.77;;;5.13;;
17983;SDS011;9117;52.420;20.728;2023-03-15T06:56:19;12.10;;;4.30;;
17983;SDS011;9117;52.420;20.728;2023-03-15T06:58:48;14.77;;;4.50;;
17983;SDS011;9117;52.420;20.728;2023-03-15T07:01:17;13.07;;;5.13;;
17983;SDS011;9117;52.420;20.728;2023-03-15T07:03:45;15.10;;;5.23;;
17983;SDS011;9117;52.420;20.728;2023-03-15T07:06:13;11.43;;;4.97;;
17983;SDS011;9117;52.420;20.728;2023-03-15T07:08:41;14.77;;;5.73;;
17983;SDS011;9117;52.420;20.728;2023-03-15T07:11:09;14.20;;;5.67;;
17983;SDS011;9117;52.420;20.728;2023-03-15T07:13:37;14.43;;;5.57;;
17983;SDS011;9117;52.420;20.728;2023-03-15T07:16:07;14.20;;;5.47;;
17983;SDS011;9117;52.420;20.728;2023-03-15T07:18:35;11.77;;;5.63;;
17983;SDS011;9117;52.420;20.728;2023-03-15T07:21:04;23.03;;;6.60;;
17983;SDS011;9117;52.420;20.728;2023-03-15T07:23:33;15.13;;;5.87;;
17983;SDS011;9117;52.420;20.728;2023-03-15T07:26:01;16.23;;;5.10;;
17983;SDS011;9117;52.420;20.728;2023-03-15T07:28:30;12.50;;;5.70;;
17983;SDS011;9117;52.420;20.728;2023-03-15T07:30:58;14.37;;;5.80;;
17983;SDS011;9117;52.420;20.728;2023-03-15T07:33:29;11.57;;;5.33;;
17983;SDS011;9117;52.420;20.728;2023-03-15T07:36:01;13.70;;;5.33;;
17983;SDS011;9117;52.420;20.728;2023-03-15T07:38:30;16.90;;;6.20;;
17983;SDS011;9117;52.420;20.728;2023-03-15T07:41:00;12.80;;;5.50;;
17983;SDS011;9117;52.420;20.728;2023-03-15T07:43:29;19.27;;;5.70;;
17983;SDS011;9117;52.420;20.728;2023-03-15T07:45:57;13.93;;;5.77;;
17983;SDS011;9117;52.420;20.728;2023-03-15T07:48:26;14.57;;;5.70;;
17983;SDS011;9117;52.420;20.728;2023-03-15T07:50:56;11.70;;;4.83;;
17983;SDS011;9117;52.420;20.728;2023-03-15T07:53:25;17.97;;;5.73;;
17983;SDS011;9117;52.420;20.728;2023-03-15T07:55:53;13.70;;;5.47;;
17983;SDS011;9117;52.420;20.728;2023-03-15T07:58:21;16.57;;;6.27;;
17983;SDS011;9117;52.420;20.728;2023-03-15T08:00:52;13.87;;;6.17;;
17983;SDS011;9117;52.420;20.728;2023-03-15T08:03:21;19.97;;;6.50;;
17983;SDS011;9117;52.420;20.728;2023-03-15T08:05:52;11.70;;;5.57;;
17983;SDS011;9117;52.420;20.728;2023-03-15T08:08:24;13.43;;;6.53;;
17983;SDS011;9117;52.420;20.728;2023-03-15T08:10:52;14.43;;;5.70;;
17983;SDS011;9117;52.420;20.728;2023-03-15T08:13:22;12.27;;;4.87;;
17983;SDS011;9117;52.420;20.728;2023-03-15T08:15:51;12.87;;;4.77;;
17983;SDS011;9117;52.420;20.728;2023-03-15T08:18:19;13.03;;;5.30;;
17983;SDS011;9117;52.420;20.728;2023-03-15T08:20:47;13.37;;;5.67;;
17983;SDS011;9117;52.420;20.728;2023-03-15T08:23:16;15.40;;;6.10;;
17983;SDS011;9117;52.420;20.728;2023-03-15T08:25:45;13.53;;;5.70;;
17983;SDS011;9117;52.420;20.728;2023-03-15T08:28:14;19.50;;;6.70;;
17983;SDS011;9117;52.420;20.728;2023-03-15T08:30:42;16.67;;;6.80;;
17983;SDS011;9117;52.420;20.728;2023-03-15T08:33:10;14.40;;;6.40;;
17983;SDS011;9117;52.420;20.728;2023-03-15T08:35:39;15.37;;;6.97;;
17983;SDS011;9117;52.420;20.728;2023-03-15T08:38:07;13.57;;;4.37;;
17983;SDS011;9117;52.420;20.728;2023-03-15T08:40:36;6.37;;;3.40;;
17983;SDS011;9117;52.420;20.728;2023-03-15T08:43:07;9.80;;;4.10;;
17983;SDS011;9117;52.420;20.728;2023-03-15T08:45:35;14.10;;;4.03;;
17983;SDS011;9117;52.420;20.728;2023-03-15T08:48:24;12.53;;;3.67;;
17983;SDS011;9117;52.420;20.728;2023-03-15T08:50:52;15.23;;;4.03;;
17983;SDS011;9117;52.420;20.728;2023-03-15T08:53:20;14.97;;;3.90;;
17983;SDS011;9117;52.420;20.728;2023-03-15T08:55:49;7.87;;;2.77;;
17983;SDS011;9117;52.420;20.728;2023-03-15T08:58:18;12.20;;;2.27;;
17983;SDS011;9117;52.420;20.728;2023-03-15T09:00:47;19.40;;;3.27;;
17983;SDS011;9117;52.420;20.728;2023-03-15T09:03:16;7.03;;;3.17;;
17983;SDS011;9117;52.420;20.728;2023-03-15T09:05:44;8.10;;;2.43;;
17983;SDS011;9117;52.420;20.728;2023-03-15T09:08:13;11.33;;;3.27;;
17983;SDS011;9117;52.420;20.728;2023-03-15T09:10:42;12.27;;;4.00;;
17983;SDS011;9117;52.420;20.728;2023-03-15T09:13:10;5.77;;;3.00;;
17983;SDS011;9117;52.420;20.728;2023-03-15T09:15:40;7.17;;;3.10;;
17983;SDS011;9117;52.420;20.728;2023-03-15T09:18:08;13.27;;;4.63;;
17983;SDS011;9117;52.420;20.728;2023-03-15T09:20:36;10.33;;;3.70;;
17983;SDS011;9117;52.420;20.728;2023-03-15T09:23:05;9.27;;;4.03;;
17983;SDS011;9117;52.420;20.728;2023-03-15T09:25:33;13.17;;;4.80;;
17983;SDS011;9117;52.420;20.728;2023-03-15T09:28:02;11.93;;;3.57;;
17983;SDS011;9117;52.420;20.728;2023-03-15T09:30:46;12.27;;;4.83;;
17983;SDS011;9117;52.420;20.728;2023-03-15T09:33:14;11.47;;;4.80;;
17983;SDS011;9117;52.420;20.728;2023-03-15T09:35:42;11.97;;;4.63;;
17983;SDS011;9117;52.420;20.728;2023-03-15T09:38:10;9.40;;;3.73;;
17983;SDS011;9117;52.420;20.728;2023-03-15T09:40:39;14.70;;;5.17;;
17983;SDS011;9117;52.420;20.728;2023-03-15T09:43:24;11.80;;;4.13;;
17983;SDS011;9117;52.420;20.728;2023-03-15T09:46:16;15.80;;;4.63;;
17983;SDS011;9117;52.420;20.728;2023-03-15T09:48:53;21.10;;;6.83;;
17983;SDS011;9117;52.420;20.728;2023-03-15T09:51:31;14.77;;;6.17;;
17983;SDS011;9117;52.420;20.728;2023-03-15T09:54:06;16.10;;;7.27;;
17983;SDS011;9117;52.420;20.728;2023-03-15T09:56:39;24.70;;;8.83;;
17983;SDS011;9117;52.420;20.728;2023-03-15T09:59:11;15.87;;;7.77;;
17983;SDS011;9117;52.420;20.728;2023-03-15T10:01:44;21.17;;;7.63;;
17983;SDS011;9117;52.420;20.728;2023-03-15T10:04:17;25.93;;;8.43;;
17983;SDS011;9117;52.420;20.728;2023-03-15T10:06:54;14.97;;;6.70;;
17983;SDS011;9117;52.420;20.728;2023-03-15T10:09:25;16.60;;;6.37;;
17983;SDS011;9117;52.420;20.728;2023-03-15T10:12:00;14.90;;;6.87;;
17983;SDS011;9117;52.420;20.728;2023-03-15T10:14:38;17.30;;;6.73;;
17983;SDS011;9117;52.420;20.728;2023-03-15T10:17:27;16.07;;;5.97;;
17983;SDS011;9117;52.420;20.728;2023-03-15T10:20:02;16.33;;;6.50;;
17983;SDS011;9117;52.420;20.728;2023-03-15T10:22:35;15.77;;;7.33;;
17983;SDS011;9117;52.420;20.728;2023-03-15T10:25:12;12.13;;;4.93;;
17983;SDS011;9117;52.420;20.728;2023-03-15T10:27:44;12.33;;;5.10;;
17983;SDS011;9117;52.420;20.728;2023-03-15T10:30:16;15.30;;;5.20;;
17983;SDS011;9117;52.420;20.728;2023-03-15T10:32:48;13.77;;;6.00;;
17983;SDS011;9117;52.420;20.728;2023-03-15T10:35:20;12.83;;;5.73;;
17983;SDS011;9117;52.420;20.728;2023-03-15T10:37:48;17.80;;;7.30;;
17983;SDS011;9117;52.420;20.728;2023-03-15T10:43:11;11.83;;;6.57;;
17983;SDS011;9117;52.420;20.728;2023-03-15T10:45:45;19.63;;;7.33;;
17983;SDS011;9117;52.420;20.728;2023-03-15T10:48:16;14.87;;;5.37;;
17983;SDS011;9117;52.420;20.728;2023-03-15T10:50:44;15.20;;;5.23;;
17983;SDS011;9117;52.420;20.728;2023-03-15T10:53:17;15.53;;;6.20;;
17983;SDS011;9117;52.420;20.728;2023-03-15T10:55:47;11.70;;;4.10;;
17983;SDS011;9117;52.420;20.728;2023-03-15T10:58:20;22.53;;;5.23;;
17983;SDS011;9117;52.420;20.728;2023-03-15T11:00:53;12.60;;;4.23;;
17983;SDS011;9117;52.420;20.728;2023-03-15T11:03:28;10.07;;;4.07;;
17983;SDS011;9117;52.420;20.728;2023-03-15T11:05:57;8.73;;;4.17;;
17983;SDS011;9117;52.420;20.728;2023-03-15T11:08:34;10.70;;;4.40;;
17983;SDS011;9117;52.420;20.728;2023-03-15T11:11:04;10.77;;;4.27;;
17983;SDS011;9117;52.420;20.728;2023-03-15T11:13:35;11.93;;;4.43;;
17983;SDS011;9117;52.420;20.728;2023-03-15T11:16:06;13.47;;;5.67;;
17983;SDS011;9117;52.420;20.728;2023-03-15T11:18:47;14.90;;;5.20;;
17983;SDS011;9117;52.420;20.728;2023-03-15T11:21:19;11.00;;;4.87;;
17983;SDS011;9117;52.420;20.728;2023-03-15T11:23:50;10.83;;;3.87;;
17983;SDS011;9117;52.420;20.728;2023-03-15T11:26:20;13.90;;;4.60;;
17983;SDS011;9117;52.420;20.728;2023-03-15T11:28:59;13.03;;;5.00;;
17983;SDS011;9117;52.420;20.728;2023-03-15T11:31:31;9.17;;;3.47;;
17983;SDS011;9117;52.420;20.728;2023-03-15T11:34:03;14.57;;;5.03;;
17983;SDS011;9117;52.420;20.728;2023-03-15T11:36:35;11.70;;;4.33;;
17983;SDS011;9117;52.420;20.728;2023-03-15T11:39:07;16.17;;;4.57;;
17983;SDS011;9117;52.420;20.728;2023-03-15T11:41:40;16.20;;;5.17;;
17983;SDS011;9117;52.420;20.728;2023-03-15T11:44:15;13.20;;;4.53;;
17983;SDS011;9117;52.420;20.728;2023-03-15T11:46:54;13.77;;;4.93;;
17983;SDS011;9117;52.420;20.728;2023-03-15T11:49:30;12.73;;;4.50;;
17983;SDS011;9117;52.420;20.728;2023-03-15T11:52:03;8.43;;;4.17;;
17983;SDS011;9117;52.420;20.728;2023-03-15T11:54:32;9.83;;;4.00;;
17983;SDS011;9117;52.420;20.728;2023-03-15T11:57:01;12.57;;;4.30;;
17983;SDS011;9117;52.420;20.728;2023-03-15T11:59:32;14.13;;;4.40;;
17983;SDS011;9117;52.420;20.728;2023-03-15T12:02:32;9.93;;;3.73;;
17983;SDS011;9117;52.420;20.728;2023-03-15T12:05:05;10.90;;;3.53;;
17983;SDS011;9117;52.420;20.728;2023-03-15T12:07:57;8.93;;;3.50;;
17983;SDS011;9117;52.420;20.728;2023-03-15T12:10:45;9.73;;;3.60;;
17983;SDS011;9117;52.420;20.728;2023-03-15T12:13:25;11.97;;;4.00;;
17983;SDS011;9117;52.420;20.728;2023-03-15T12:15:55;12.57;;;3.60;;
17983;SDS011;9117;52.420;20.728;2023-03-15T12:18:36;5.57;;;3.17;;
17983;SDS011;9117;52.420;20.728;2023-03-15T12:21:13;9.83;;;3.60;;
17983;SDS011;9117;52.420;20.728;2023-03-15T12:23:54;12.10;;;3.53;;
17983;SDS011;9117;52.420;20.728;2023-03-15T12:26:25;6.93;;;3.33;;
17983;SDS011;9117;52.420;20.728;2023-03-15T12:29:14;16.20;;;4.13;;
17983;SDS011;9117;52.420;20.728;2023-03-15T12:31:50;9.90;;;4.03;;
17983;SDS011;9117;52.420;20.728;2023-03-15T12:34:22;10.97;;;3.70;;
17983;SDS011;9117;52.420;20.728;2023-03-15T12:36:59;10.70;;;3.70;;
17983;SDS011;9117;52.420;20.728;2023-03-15T12:39:35;8.00;;;3.43;;
17983;SDS011;9117;52.420;20.728;2023-03-15T12:42:10;10.27;;;3.87;;
17983;SDS011;9117;52.420;20.728;2023-03-15T12:44:54;11.80;;;3.97;;
17983;SDS011;9117;52.420;20.728;2023-03-15T12:50:54;14.70;;;5.57;;
17983;SDS011;9117;52.420;20.728;2023-03-15T12:53:33;12.33;;;5.03;;
17983;SDS011;9117;52.420;20.728;2023-03-15T12:59:21;11.87;;;3.97;;
17983;SDS011;9117;52.420;20.728;2023-03-15T13:01:55;7.97;;;3.50;;
17983;SDS011;9117;52.420;20.728;2023-03-15T13:04:25;10.67;;;4.43;;
17983;SDS011;9117;52.420;20.728;2023-03-15T13:06:57;8.00;;;3.73;;
17983;SDS011;9117;52.420;20.728;2023-03-15T13:09:46;10.73;;;3.17;;
17983;SDS011;9117;52.420;20.728;2023-03-15T13:12:24;8.37;;;3.70;;
17983;SDS011;9117;52.420;20.728;2023-03-15T13:14:57;7.63;;;3.00;;
17983;SDS011;9117;52.420;20.728;2023-03-15T13:17:38;8.63;;;3.30;;
17983;SDS011;9117;52.420;20.728;2023-03-15T13:20:23;6.53;;;3.50;;
17983;SDS011;9117;52.420;20.728;2023-03-15T13:23:05;10.57;;;2.97;;
17983;SDS011;9117;52.420;20.728;2023-03-15T13:25:47;7.53;;;3.40;;
17983;SDS011;9117;52.420;20.728;2023-03-15T13:28:26;8.77;;;3.70;;
17983;SDS011;9117;52.420;20.728;2023-03-15T13:31:09;8.30;;;4.03;;
17983;SDS011;9117;52.420;20.728;2023-03-15T13:33:39;12.57;;;5.30;;
17983;SDS011;9117;52.420;20.728;2023-03-15T13:36:10;13.27;;;5.20;;
17983;SDS011;9117;52.420;20.728;2023-03-15T13:38:41;10.37;;;5.13;;
17983;SDS011;9117;52.420;20.728;2023-03-15T13:41:19;13.33;;;6.30;;
17983;SDS011;9117;52.420;20.728;2023-03-15T13:43:49;11.37;;;5.90;;
17983;SDS011;9117;52.420;20.728;2023-03-15T13:46:18;10.10;;;3.90;;
17983;SDS011;9117;52.420;20.728;2023-03-15T13:48:49;10.43;;;4.33;;
17983;SDS011;9117;52.420;20.728;2023-03-15T13:51:21;8.80;;;4.50;;
17983;SDS011;9117;52.420;20.728;2023-03-15T13:53:52;10.97;;;3.67;;
17983;SDS011;9117;52.420;20.728;2023-03-15T13:56:27;6.03;;;3.10;;
17983;SDS011;9117;52.420;20.728;2023-03-15T13:59:13;8.77;;;3.53;;
17983;SDS011;9117;52.420;20.728;2023-03-15T14:01:42;9.27;;;2.70;;
17983;SDS011;9117;52.420;20.728;2023-03-15T14:04:11;14.77;;;4.10;;
17983;SDS011;9117;52.420;20.728;2023-03-15T14:06:43;8.20;;;3.67;;
17983;SDS011;9117;52.420;20.728;2023-03-15T14:09:16;12.03;;;3.60;;
17983;SDS011;9117;52.420;20.728;2023-03-15T14:12:00;6.53;;;2.90;;
17983;SDS011;9117;52.420;20.728;2023-03-15T14:14:30;9.23;;;2.77;;
17983;SDS011;9117;52.420;20.728;2023-03-15T14:17:05;9.13;;;3.70;;
17983;SDS011;9117;52.420;20.728;2023-03-15T14:19:35;10.10;;;3.40;;
17983;SDS011;9117;52.420;20.728;2023-03-15T14:22:04;7.77;;;3.40;;
17983;SDS011;9117;52.420;20.728;2023-03-15T14:24:42;8.40;;;2.90;;
17983;SDS011;9117;52.420;20.728;2023-03-15T14:27:15;10.97;;;3.00;;
17983;SDS011;9117;52.420;20.728;2023-03-15T14:29:45;6.70;;;3.10;;
17983;SDS011;9117;52.420;20.728;2023-03-15T14:32:23;9.40;;;3.57;;
17983;SDS011;9117;52.420;20.728;2023-03-15T14:34:58;9.53;;;3.33;;
17983;SDS011;9117;52.420;20.728;2023-03-15T14:37:30;8.80;;;3.20;;
17983;SDS011;9117;52.420;20.728;2023-03-15T14:40:05;11.87;;;4.57;;
17983;SDS011;9117;52.420;20.728;2023-03-15T14:42:44;14.97;;;4.90;;
17983;SDS011;9117;52.420;20.728;2023-03-15T14:45:12;14.23;;;5.60;;
17983;SDS011;9117;52.420;20.728;2023-03-15T14:47:42;11.27;;;4.30;;
17983;SDS011;9117;52.420;20.728;2023-03-15T14:50:23;7.23;;;3.27;;
17983;SDS011;9117;52.420;20.728;2023-03-15T14:52:55;7.73;;;3.80;;
17983;SDS011;9117;52.420;20.728;2023-03-15T14:55:26;12.13;;;5.03;;
17983;SDS011;9117;52.420;20.728;2023-03-15T14:58:00;9.40;;;4.73;;
17983;SDS011;9117;52.420;20.728;2023-03-15T15:00:28;15.03;;;4.87;;
17983;SDS011;9117;52.420;20.728;2023-03-15T15:02:57;12.10;;;5.43;;
17983;SDS011;9117;52.420;20.728;2023-03-15T15:05:27;14.57;;;4.67;;
17983;SDS011;9117;52.420;20.728;2023-03-15T15:07:58;9.77;;;3.97;;
17983;SDS011;9117;52.420;20.728;2023-03-15T15:10:29;13.73;;;5.50;;
17983;SDS011;9117;52.420;20.728;2023-03-15T15:13:01;16.30;;;4.50;;